Time;durP1;ratioP1;P1;durP2;ratioP2;P2;SDS_P1;SDS_P2;PMS_P1;PMS_P2;Temp;Humidity;BMP_temperature;BMP_pressure;BME280_temperature;BME280_humidity;BME280_pressure;Samples;Min_cycle;Max_cycle;Signal;HPM_P1;HPM_P2
2021/05/01 00:00:20;;;;;;;4.70;3.67;;;24.00;44.70;;;;;;4955333;29;20517;-62
2021/05/01 00:02:46;;;;;;;3.85;3.17;;;23.90;44.60;;;;;;4955573;29;20477;-62
2021/05/01 00:05:12;;;;;;;3.58;2.95;;;24.00;44.70;;;;;;4955721;29;20038;-63
2021/05/01 00:07:39;;;;;;;3.97;3.10;;;23.90;44.60;;;;;;4955491;28;20411;-62
2021/05/01 00:10:06;;;;;;;4.38;3.13;;;23.90;44.60;;;;;;4955343;29;20023;-62
2021/05/01 00:12:32;;;;;;;6.13;3.58;;;23.90;44.50;;;;;;4955755;29;20136;-62
2021/05/01 00:14:58;;;;;;;3.85;2.95;;;23.90;44.50;;;;;;4938330;29;20046;-62
2021/05/01 00:17:24;;;;;;;6.03;3.58;;;23.80;44.50;;;;;;4955819;29;20466;-61
2021/05/01 00:19:50;;;;;;;3.20;2.90;;;23.90;44.50;;;;;;4955530;29;20043;-61
2021/05/01 00:22:16;;;;;;;6.75;3.15;;;23.90;44.40;;;;;;4955056;29;20489;-61
2021/05/01 00:24:43;;;;;;;3.92;2.90;;;23.80;44.40;;;;;;4937901;29;20397;-62
2021/05/01 00:27:09;;;;;;;3.78;2.90;;;23.90;44.40;;;;;;4938052;29;20046;-62
2021/05/01 00:29:35;;;;;;;3.55;2.25;;;23.80;44.30;;;;;;4937887;29;20044;-62
2021/05/01 00:32:02;;;;;;;3.80;2.90;;;23.80;44.40;;;;;;4955096;29;20035;-62
2021/05/01 00:34:28;;;;;;;3.78;3.03;;;23.80;44.40;;;;;;4937804;29;20039;-61
2021/05/01 00:36:54;;;;;;;5.32;3.33;;;23.80;44.30;;;;;;4955155;29;20058;-62
2021/05/01 00:39:20;;;;;;;3.97;3.00;;;23.90;44.40;;;;;;4954945;29;20035;-62
2021/05/01 00:41:46;;;;;;;3.00;2.55;;;23.80;44.30;;;;;;4955093;29;20393;-62
2021/05/01 00:44:13;;;;;;;3.45;2.70;;;23.80;44.30;;;;;;4955157;29;20478;-61
2021/05/01 00:46:39;;;;;;;3.78;2.92;;;23.80;44.30;;;;;;4937615;29;20035;-61
2021/05/01 00:49:05;;;;;;;5.15;3.03;;;23.80;44.30;;;;;;4954484;29;20054;-61
2021/05/01 00:51:32;;;;;;;3.15;2.78;;;23.80;44.30;;;;;;4954638;29;20038;-62
2021/05/01 00:53:59;;;;;;;4.50;2.80;;;23.80;44.20;;;;;;4954499;29;20039;-61
2021/05/01 00:56:25;;;;;;;4.18;2.65;;;23.80;44.20;;;;;;4954684;29;20119;-61
2021/05/01 00:58:52;;;;;;;5.00;3.13;;;23.80;44.20;;;;;;4937257;29;20130;-61
2021/05/01 01:01:18;;;;;;;4.07;2.72;;;23.80;44.20;;;;;;4954341;29;20375;-61
2021/05/01 01:03:47;;;;;;;2.70;2.40;;;23.80;44.20;;;;;;4937079;29;20039;-61
2021/05/01 01:06:14;;;;;;;5.20;3.00;;;23.70;44.10;;;;;;4954505;29;20516;-61
2021/05/01 01:08:41;;;;;;;7.32;2.83;;;23.70;44.10;;;;;;4954308;29;20114;-61
2021/05/01 01:11:07;;;;;;;5.50;3.08;;;23.70;44.00;;;;;;4954330;29;20127;-62
2021/05/01 01:13:34;;;;;;;7.43;3.30;;;23.70;44.00;;;;;;4954232;29;20447;-62
2021/05/01 01:16:01;;;;;;;3.70;2.58;;;23.70;44.00;;;;;;4954080;29;20066;-62
2021/05/01 01:18:27;;;;;;;5.38;2.22;;;23.70;44.00;;;;;;4935412;29;20044;-62
2021/05/01 01:20:53;;;;;;;3.40;2.28;;;23.70;43.90;;;;;;4943752;29;20454;-62
2021/05/01 01:23:19;;;;;;;4.15;2.35;;;23.70;43.90;;;;;;4954300;29;20498;-62
2021/05/01 01:25:45;;;;;;;3.88;2.10;;;23.70;43.80;;;;;;4936945;29;20039;-62
2021/05/01 01:28:12;;;;;;;4.57;2.20;;;23.70;43.80;;;;;;4954032;29;20439;-62
2021/05/01 01:30:38;;;;;;;3.80;2.38;;;23.70;43.80;;;;;;4954249;29;20040;-62
2021/05/01 01:33:06;;;;;;;3.70;2.15;;;23.70;43.70;;;;;;4954068;29;20039;-62
2021/05/01 01:35:33;;;;;;;2.63;2.00;;;23.60;43.60;;;;;;4954006;29;20059;-62
2021/05/01 01:37:59;;;;;;;3.83;2.30;;;23.70;43.70;;;;;;4954163;29;20462;-62
2021/05/01 01:40:26;;;;;;;3.95;2.00;;;23.70;43.70;;;;;;4966856;28;20038;-62
2021/05/01 01:42:55;;;;;;;3.25;1.85;;;23.70;43.70;;;;;;4969418;28;20042;-62
2021/05/01 01:45:27;;;;;;;4.32;2.33;;;23.60;43.60;;;;;;4960521;28;20054;-62
2021/05/01 01:47:54;;;;;;;3.03;1.80;;;23.60;43.50;;;;;;4953982;29;20051;-62
2021/05/01 01:50:20;;;;;;;3.47;2.20;;;23.60;43.60;;;;;;4953805;29;20466;-62
2021/05/01 01:52:47;;;;;;;3.88;1.80;;;23.70;43.60;;;;;;4953902;29;20036;-62
2021/05/01 01:55:16;;;;;;;4.40;2.30;;;23.60;43.50;;;;;;4936900;29;20039;-62
2021/05/01 01:57:42;;;;;;;2.92;2.17;;;23.60;43.50;;;;;;4953907;29;20031;-62
2021/05/01 02:00:15;;;;;;;6.57;1.83;;;23.60;43.50;;;;;;4935947;29;20454;-62
2021/05/01 02:02:42;;;;;;;6.38;2.25;;;23.60;43.40;;;;;;4947713;29;20046;-62
2021/05/01 02:05:09;;;;;;;3.25;1.70;;;23.60;43.40;;;;;;4953970;29;20038;-63
2021/05/01 02:07:35;;;;;;;3.10;2.00;;;23.60;43.40;;;;;;4936671;29;20066;-63
2021/05/01 02:10:02;;;;;;;1.80;1.60;;;23.60;43.40;;;;;;4947685;29;20051;-62
2021/05/01 02:12:28;;;;;;;2.38;2.13;;;23.60;43.40;;;;;;4949844;28;20042;-62
2021/05/01 02:14:54;;;;;;;4.30;2.13;;;23.60;43.40;;;;;;4961251;28;20138;-62
2021/05/01 02:17:20;;;;;;;2.67;1.75;;;23.60;43.40;;;;;;4954102;29;20486;-62
2021/05/01 02:19:46;;;;;;;2.45;1.80;;;23.60;43.40;;;;;;4953763;29;20046;-62
2021/05/01 02:22:12;;;;;;;2.58;1.77;;;23.50;43.40;;;;;;4953618;29;20111;-62
2021/05/01 02:24:38;;;;;;;2.50;1.50;;;23.50;43.40;;;;;;4953548;29;20131;-62
2021/05/01 02:27:05;;;;;;;6.05;1.70;;;23.50;43.40;;;;;;4936333;29;20477;-62
2021/05/01 02:29:31;;;;;;;2.03;1.40;;;23.50;43.40;;;;;;4953605;29;20047;-62
2021/05/01 02:31:58;;;;;;;3.03;1.50;;;23.50;43.30;;;;;;4938985;29;20110;-62
2021/05/01 02:34:25;;;;;;;4.10;1.50;;;23.50;43.30;;;;;;4957176;29;20038;-62
2021/05/01 02:36:51;;;;;;;3.25;1.80;;;23.50;43.40;;;;;;4957322;29;20390;-62
2021/05/01 02:39:17;;;;;;;2.90;1.45;;;23.50;43.30;;;;;;4956905;29;20041;-62
2021/05/01 02:41:43;;;;;;;2.55;1.60;;;23.50;43.20;;;;;;4957136;29;20129;-62
2021/05/01 02:44:09;;;;;;;2.78;1.23;;;23.50;43.20;;;;;;4940145;29;20043;-62
2021/05/01 02:46:35;;;;;;;3.90;1.38;;;23.50;43.20;;;;;;4957099;29;20106;-62
2021/05/01 02:49:01;;;;;;;3.90;1.70;;;23.50;43.20;;;;;;4939481;29;20043;-62
2021/05/01 02:51:27;;;;;;;3.67;1.55;;;23.50;43.20;;;;;;4956846;29;20031;-62
2021/05/01 02:53:52;;;;;;;1.80;1.27;;;23.40;43.20;;;;;;4939680;29;20058;-62
2021/05/01 02:56:18;;;;;;;2.70;1.60;;;23.40;43.20;;;;;;4957506;29;20115;-62
2021/05/01 02:58:44;;;;;;;2.45;1.55;;;23.50;43.20;;;;;;4956964;29;20035;-62
2021/05/01 03:01:10;;;;;;;3.78;1.45;;;23.40;43.10;;;;;;4956655;29;20038;-62
2021/05/01 03:03:38;;;;;;;4.10;1.50;;;23.50;43.20;;;;;;4956736;29;20520;-62
2021/05/01 03:06:04;;;;;;;3.08;1.80;;;23.40;43.10;;;;;;4956684;29;20051;-62
2021/05/01 03:08:30;;;;;;;3.80;1.70;;;23.40;43.10;;;;;;4956635;29;20066;-62
2021/05/01 03:10:56;;;;;;;2.28;1.30;;;23.40;43.00;;;;;;4957146;29;20792;-62
2021/05/01 03:13:22;;;;;;;2.90;1.25;;;23.40;43.10;;;;;;4956709;29;20098;-62
2021/05/01 03:15:49;;;;;;;3.65;1.35;;;23.40;43.10;;;;;;4956491;29;20109;-62
2021/05/01 03:18:15;;;;;;;3.60;1.60;;;23.40;43.10;;;;;;4960035;28;20437;-62
2021/05/01 03:20:41;;;;;;;2.55;1.25;;;23.40;43.10;;;;;;4961495;28;20039;-62
2021/05/01 03:23:08;;;;;;;1.63;1.23;;;23.40;43.10;;;;;;4955996;29;20079;-62
2021/05/01 03:25:34;;;;;;;2.75;1.30;;;23.40;43.10;;;;;;4955998;29;20043;-62
2021/05/01 03:28:00;;;;;;;1.38;0.98;;;23.40;43.10;;;;;;4956266;29;20062;-62
2021/05/01 03:30:26;;;;;;;3.40;1.42;;;23.40;43.10;;;;;;4971184;28;20030;-62
2021/05/01 03:32:52;;;;;;;1.58;1.27;;;23.40;43.10;;;;;;4948312;29;20039;-62
2021/05/01 03:35:18;;;;;;;4.45;1.65;;;23.40;43.00;;;;;;4956424;29;20477;-61
2021/05/01 03:37:44;;;;;;;2.90;1.45;;;23.40;43.00;;;;;;4938905;29;20043;-62
2021/05/01 03:40:11;;;;;;;2.63;1.70;;;23.40;43.00;;;;;;4955944;29;20082;-62
2021/05/01 03:42:37;;;;;;;4.20;3.67;;;23.40;42.90;;;;;;4955558;28;20418;-62
2021/05/01 03:45:05;;;;;;;3.70;2.47;;;23.40;42.90;;;;;;4956182;29;20469;-62
2021/05/01 03:47:31;;;;;;;5.50;3.13;;;23.40;42.90;;;;;;4955804;29;20440;-62
2021/05/01 03:49:57;;;;;;;7.03;5.75;;;23.40;42.80;;;;;;4956028;29;20039;-62
2021/05/01 03:52:23;;;;;;;7.05;6.22;;;23.40;42.80;;;;;;4955662;29;20486;-62
2021/05/01 03:54:49;;;;;;;7.95;7.15;;;23.40;43.50;;;;;;4938685;29;20545;-62
2021/05/01 03:57:15;;;;;;;7.40;6.18;;;23.40;42.80;;;;;;4955631;29;20055;-62
2021/05/01 03:59:41;;;;;;;7.78;6.85;;;23.30;42.80;;;;;;4955776;29;20058;-61
2021/05/01 04:02:08;;;;;;;7.55;6.32;;;23.30;42.80;;;;;;4955064;29;20035;-62
2021/05/01 04:04:34;;;;;;;10.80;6.88;;;23.30;42.80;;;;;;4955418;29;20043;-62
2021/05/01 04:07:00;;;;;;;7.50;5.60;;;23.40;42.80;;;;;;4955115;29;20078;-62
2021/05/01 04:09:26;;;;;;;7.32;6.55;;;23.30;42.70;;;;;;4955304;29;20067;-61
2021/05/01 04:11:52;;;;;;;7.20;5.90;;;23.30;42.70;;;;;;4955671;29;20027;-61
2021/05/01 04:14:18;;;;;;;6.20;5.60;;;23.30;42.70;;;;;;4938279;29;20055;-62
2021/05/01 04:16:44;;;;;;;9.80;5.95;;;23.30;42.70;;;;;;4955200;29;20039;-62
2021/05/01 04:19:10;;;;;;;5.88;4.90;;;23.30;42.60;;;;;;4938988;29;20047;-62
2021/05/01 04:21:36;;;;;;;5.45;4.25;;;23.30;42.60;;;;;;4945596;29;20044;-62
2021/05/01 04:24:02;;;;;;;6.65;4.60;;;23.30;42.60;;;;;;4961167;29;20103;-62
2021/05/01 04:26:28;;;;;;;4.90;4.38;;;23.30;42.60;;;;;;4961995;29;20031;-62
2021/05/01 04:28:56;;;;;;;5.93;4.00;;;23.30;42.50;;;;;;4961432;29;20050;-62
2021/05/01 04:31:22;;;;;;;6.57;4.22;;;23.30;42.50;;;;;;4944678;29;20530;-62
2021/05/01 04:33:48;;;;;;;3.90;3.50;;;23.30;42.50;;;;;;4961746;29;20118;-62
2021/05/01 04:36:14;;;;;;;3.70;3.33;;;23.30;42.60;;;;;;4961493;29;20031;-61
2021/05/01 04:38:40;;;;;;;5.18;3.60;;;23.30;42.60;;;;;;4955466;29;20046;-62
2021/05/01 04:41:06;;;;;;;3.22;2.90;;;23.30;42.50;;;;;;4955129;29;20427;-62
2021/05/01 04:43:33;;;;;;;3.65;2.80;;;23.20;42.50;;;;;;4954708;29;20063;-62
2021/05/01 04:45:59;;;;;;;3.30;2.78;;;23.20;42.50;;;;;;4954960;29;20039;-61
2021/05/01 04:48:29;;;;;;;6.95;3.00;;;23.30;42.60;;;;;;4954928;29;20043;-62
2021/05/01 04:50:55;;;;;;;3.78;2.83;;;23.30;42.50;;;;;;4954573;29;20039;-62
2021/05/01 04:53:21;;;;;;;3.58;2.30;;;23.20;42.40;;;;;;4954924;28;20031;-62
2021/05/01 04:55:47;;;;;;;4.82;2.65;;;23.30;42.50;;;;;;4953992;29;20035;-61
2021/05/01 04:58:13;;;;;;;5.13;2.45;;;23.20;42.40;;;;;;4954388;29;20042;-62
2021/05/01 05:00:40;;;;;;;3.30;2.53;;;23.20;42.40;;;;;;4954366;29;20114;-61
2021/05/01 05:03:06;;;;;;;7.18;2.67;;;23.20;42.40;;;;;;4954449;29;20042;-62
2021/05/01 05:05:32;;;;;;;3.08;2.33;;;23.20;42.40;;;;;;4954342;29;20043;-62
2021/05/01 05:07:59;;;;;;;2.95;2.28;;;23.20;42.40;;;;;;4954463;29;20062;-61
2021/05/01 05:10:24;;;;;;;2.90;2.10;;;23.20;42.40;;;;;;4954609;29;20062;-62
2021/05/01 05:12:50;;;;;;;4.68;2.28;;;23.20;42.40;;;;;;4954509;29;20392;-62
2021/05/01 05:15:17;;;;;;;4.65;1.95;;;23.20;42.40;;;;;;4954069;29;20055;-61
2021/05/01 05:17:43;;;;;;;4.35;1.95;;;23.20;42.40;;;;;;4953764;28;20046;-62
2021/05/01 05:20:09;;;;;;;2.53;1.58;;;23.20;42.40;;;;;;4970410;28;20034;-62
2021/05/01 05:22:35;;;;;;;5.57;2.13;;;23.20;42.30;;;;;;4973917;28;20039;-62
2021/05/01 05:25:02;;;;;;;3.00;2.20;;;23.20;42.30;;;;;;4963458;28;20544;-62
2021/05/01 05:27:28;;;;;;;1.80;1.50;;;23.20;42.20;;;;;;4937038;29;20097;-62
2021/05/01 05:29:54;;;;;;;3.50;1.58;;;23.20;42.80;;;;;;4954025;29;20047;-62
2021/05/01 05:32:22;;;;;;;2.17;1.30;;;23.20;42.20;;;;;;4954021;29;20141;-62
2021/05/01 05:34:48;;;;;;;3.13;1.33;;;23.20;42.20;;;;;;4937154;29;20506;-62
2021/05/01 05:37:15;;;;;;;3.03;1.65;;;23.20;42.30;;;;;;4921224;29;20031;-62
2021/05/01 05:39:44;;;;;;;1.70;1.60;;;23.10;42.20;;;;;;4954163;29;20115;-62
2021/05/01 05:42:11;;;;;;;2.45;1.10;;;23.10;42.20;;;;;;4953947;29;20564;-61
2021/05/01 05:44:40;;;;;;;2.63;1.27;;;23.20;42.20;;;;;;4953909;29;20058;-61
2021/05/01 05:47:06;;;;;;;3.63;1.40;;;23.20;42.20;;;;;;4953668;29;20054;-61
2021/05/01 05:49:32;;;;;;;1.83;1.35;;;23.10;42.10;;;;;;4953631;29;20047;-61
2021/05/01 05:51:58;;;;;;;3.10;1.40;;;23.10;42.10;;;;;;4954018;29;20039;-61
2021/05/01 05:54:24;;;;;;;1.23;1.13;;;23.10;42.10;;;;;;4953956;29;20106;-62
2021/05/01 05:56:51;;;;;;;2.95;1.20;;;23.10;42.10;;;;;;4954000;29;20041;-61
2021/05/01 05:59:17;;;;;;;1.70;1.10;;;23.10;42.20;;;;;;4965378;28;20133;-61
2021/05/01 06:01:48;;;;;;;2.15;1.30;;;23.20;42.20;;;;;;4954581;28;20123;-61
2021/05/01 06:04:33;;;;;;;1.85;1.10;;;23.10;42.00;;;;;;4944779;28;20134;-61
2021/05/01 06:07:39;;;;;;;1.40;1.10;;;23.10;42.10;;;;;;4954460;28;20133;-61
2021/05/01 06:10:07;;;;;;;2.15;1.13;;;23.10;42.10;;;;;;4940515;29;20091;-61
2021/05/01 06:12:34;;;;;;;1.35;1.17;;;23.20;42.00;;;;;;4957435;29;20114;-61
2021/05/01 06:15:07;;;;;;;2.65;1.52;;;23.20;42.00;;;;;;4957015;29;20506;-61
2021/05/01 06:17:37;;;;;;;3.15;1.92;;;23.10;41.90;;;;;;4957359;29;20039;-61
2021/05/01 06:20:04;;;;;;;3.85;2.10;;;23.20;42.10;;;;;;4957399;29;20146;-61
2021/05/01 06:22:31;;;;;;;5.43;2.60;;;23.20;42.10;;;;;;4957349;29;20039;-61
2021/05/01 06:24:58;;;;;;;3.70;2.53;;;23.20;42.10;;;;;;4957692;29;20498;-61
2021/05/01 06:27:24;;;;;;;3.88;2.38;;;23.20;42.10;;;;;;4957506;29;20122;-61
2021/05/01 06:29:50;;;;;;;3.97;2.90;;;23.20;42.20;;;;;;4957347;29;20039;-61
2021/05/01 06:32:18;;;;;;;6.18;3.65;;;23.20;42.10;;;;;;4957134;29;20086;-61
2021/05/01 06:34:51;;;;;;;5.75;3.72;;;23.20;42.10;;;;;;4956985;29;20071;-61
2021/05/01 06:37:19;;;;;;;3.13;2.60;;;23.20;42.10;;;;;;4957178;29;20035;-61
2021/05/01 06:39:47;;;;;;;4.43;2.97;;;23.20;42.00;;;;;;4923568;29;20047;-61
2021/05/01 06:42:42;;;;;;;5.35;2.50;;;23.30;42.00;;;;;;4956665;29;20078;-61
2021/05/01 06:45:12;;;;;;;4.10;2.45;;;23.20;41.80;;;;;;4936145;29;20448;-61
2021/05/01 06:47:53;;;;;;;3.20;2.03;;;23.30;41.70;;;;;;4922871;29;20410;-60
2021/05/01 06:50:23;;;;;;;4.70;2.15;;;23.20;41.40;;;;;;4956550;29;20150;-61
2021/05/01 06:52:49;;;;;;;4.00;2.05;;;23.30;41.40;;;;;;4940085;28;20369;-60
2021/05/01 06:55:17;;;;;;;2.97;1.77;;;23.20;41.30;;;;;;4969987;28;20031;-60
2021/05/01 06:57:54;;;;;;;5.07;1.92;;;23.20;41.20;;;;;;4948839;29;20044;-61
2021/05/01 07:00:24;;;;;;;4.35;1.65;;;23.20;41.10;;;;;;4938691;29;20048;-61
2021/05/01 07:02:54;;;;;;;3.75;1.83;;;23.20;41.10;;;;;;4956450;29;20511;-61
2021/05/01 07:05:22;;;;;;;3.15;1.63;;;23.20;41.10;;;;;;4939485;29;20043;-61
2021/05/01 07:07:48;;;;;;;4.00;1.92;;;23.30;41.10;;;;;;4944295;28;20091;-61
2021/05/01 07:10:17;;;;;;;2.58;1.60;;;23.20;41.10;;;;;;4949010;29;20546;-61
2021/05/01 07:12:43;;;;;;;4.82;2.22;;;23.20;41.00;;;;;;4969047;28;20481;-61
2021/05/01 07:15:17;;;;;;;9.43;2.15;;;23.30;41.00;;;;;;4955828;29;20082;-61
2021/05/01 07:17:45;;;;;;;7.13;1.73;;;23.30;40.90;;;;;;4937304;29;20047;-61
2021/05/01 07:20:13;;;;;;;3.08;1.60;;;23.30;40.90;;;;;;4956141;28;20039;-61
2021/05/01 07:22:39;;;;;;;2.65;1.40;;;23.30;40.90;;;;;;4975847;28;20031;-61
2021/05/01 07:25:08;;;;;;;5.53;1.30;;;23.30;40.90;;;;;;4975719;28;20050;-60
2021/05/01 07:27:41;;;;;;;3.05;1.60;;;23.40;40.90;;;;;;4973516;28;20043;-61
2021/05/01 07:30:08;;;;;;;1.73;1.02;;;23.40;40.90;;;;;;4975818;28;20126;-61
2021/05/01 07:32:39;;;;;;;2.88;1.33;;;23.40;40.60;;;;;;4963989;28;20113;-61
2021/05/01 07:35:07;;;;;;;3.10;1.20;;;23.40;40.70;;;;;;4956064;29;20047;-57
2021/05/01 07:37:38;;;;;;;3.67;1.25;;;23.40;40.50;;;;;;4955978;29;20074;-58
2021/05/01 07:40:05;;;;;;;;;;;23.40;40.40;;;;;;4956934;29;20549;-58
2021/05/01 07:42:38;;;;;;;3.05;1.10;;;23.40;41.00;;;;;;4956005;29;20009;-58
2021/05/01 07:45:06;;;;;;;5.13;1.27;;;23.50;40.40;;;;;;4961552;28;20065;-60
2021/05/01 07:47:34;;;;;;;4.45;1.20;;;23.60;40.50;;;;;;4958171;28;20497;-56
2021/05/01 07:50:01;;;;;;;5.97;1.40;;;23.50;40.40;;;;;;4959337;28;20039;-56
2021/05/01 07:52:30;;;;;;;3.33;1.10;;;23.60;40.50;;;;;;4958055;28;20104;-57
2021/05/01 07:54:59;;;;;;;4.90;1.70;;;23.60;40.40;;;;;;4955530;29;20094;-57
2021/05/01 07:57:26;;;;;;;4.00;1.52;;;23.60;40.40;;;;;;4938496;29;20512;-56
2021/05/01 07:59:52;;;;;;;2.28;1.20;;;23.60;40.40;;;;;;4959065;28;20043;-56
2021/05/01 08:02:18;;;;;;;4.25;1.30;;;23.70;40.50;;;;;;4964055;28;20464;-56
2021/05/01 08:04:44;;;;;;;2.97;2.33;;;23.60;40.30;;;;;;4967908;28;20043;-56
2021/05/01 08:07:10;;;;;;;8.65;6.40;;;23.70;40.40;;;;;;4957444;28;20051;-56
2021/05/01 08:09:36;;;;;;;16.20;13.38;;;23.70;40.40;;;;;;4967815;28;20027;-56
2021/05/01 08:12:03;;;;;;;19.67;15.98;;;23.70;40.40;;;;;;4955355;29;20035;-56
2021/05/01 08:14:29;;;;;;;17.00;14.00;;;23.70;40.50;;;;;;4957158;28;20386;-56
2021/05/01 08:16:56;;;;;;;37.97;34.33;;;23.80;40.60;;;;;;4955363;28;20035;-59
2021/05/01 08:19:24;;;;;;;9.65;8.68;;;23.80;40.50;;;;;;4937923;29;20046;-61
2021/05/01 08:21:50;;;;;;;9.93;7.35;;;23.80;39.20;;;;;;4950222;29;20102;-62
2021/05/01 08:24:16;;;;;;;9.63;5.65;;;23.80;38.80;;;;;;4973118;28;20405;-61
2021/05/01 08:26:42;;;;;;;8.43;3.85;;;23.70;38.60;;;;;;4957422;28;20042;-61
2021/05/01 08:29:11;;;;;;;3.00;1.52;;;23.70;38.40;;;;;;4974542;28;20038;-61
2021/05/01 08:31:37;;;;;;;4.15;1.48;;;23.70;38.10;;;;;;4957131;28;20087;-61
2021/05/01 08:34:03;;;;;;;1.65;1.33;;;23.70;38.10;;;;;;4954992;29;20389;-61
2021/05/01 08:36:29;;;;;;;1.98;1.25;;;23.60;37.90;;;;;;4954590;29;20090;-61
2021/05/01 08:38:55;;;;;;;2.75;1.30;;;23.60;38.10;;;;;;4954864;29;20123;-61
2021/05/01 08:41:22;;;;;;;3.15;1.67;;;23.60;38.10;;;;;;4955121;29;20106;-61
2021/05/01 08:43:48;;;;;;;1.80;1.10;;;23.60;37.50;;;;;;4964882;28;20197;-61
2021/05/01 08:46:22;;;;;;;4.68;0.80;;;23.60;37.40;;;;;;4974090;28;20039;-63
2021/05/01 08:48:48;;;;;;;4.95;1.40;;;23.60;36.50;;;;;;4961859;28;20548;-63
2021/05/01 08:51:16;;;;;;;4.75;1.10;;;23.70;37.20;;;;;;4955025;29;20118;-62
2021/05/01 08:53:42;;;;;;;3.05;0.80;;;23.70;36.40;;;;;;4937255;29;20039;-62
2021/05/01 08:56:08;;;;;;;2.47;0.90;;;23.60;36.80;;;;;;4939514;28;20067;-62
2021/05/01 08:58:35;;;;;;;3.33;0.90;;;23.70;36.70;;;;;;4945027;29;20043;-62
2021/05/01 09:01:02;;;;;;;2.95;0.65;;;23.70;36.40;;;;;;4967638;28;20034;-62
2021/05/01 09:03:28;;;;;;;1.67;0.73;;;23.70;36.40;;;;;;4973659;28;20039;-62
2021/05/01 09:05:56;;;;;;;1.80;0.70;;;23.70;36.40;;;;;;4949107;29;20071;-62
2021/05/01 09:08:24;;;;;;;3.55;1.77;;;23.70;35.80;;;;;;4962373;28;20039;-63
2021/05/01 09:10:54;;;;;;;1.98;1.30;;;23.70;36.20;;;;;;4957846;28;20050;-62
2021/05/01 09:13:24;;;;;;;4.10;3.70;;;23.80;35.90;;;;;;4962677;28;20070;-62
2021/05/01 09:16:06;;;;;;;13.55;12.10;;;23.80;35.50;;;;;;4967198;28;20059;-62
2021/05/01 09:18:55;;;;;;;20.80;18.70;;;23.80;34.80;;;;;;4973598;28;20038;-62
2021/05/01 09:21:27;;;;;;;8.45;6.35;;;23.80;35.70;;;;;;4974110;28;20469;-62
2021/05/01 09:23:54;;;;;;;2.65;1.98;;;23.90;35.30;;;;;;4956539;28;20046;-60
2021/05/01 09:26:52;;;;;;;2.63;1.52;;;23.90;35.30;;;;;;4973870;28;20039;-60
2021/05/01 09:29:36;;;;;;;4.72;1.35;;;24.00;35.80;;;;;;4876152;29;20049;-60
2021/05/01 09:32:06;;;;;;;1.60;0.90;;;24.00;35.30;;;;;;4876415;29;20045;-61
2021/05/01 09:34:46;;;;;;;2.88;0.70;;;24.10;35.50;;;;;;4876318;29;20074;-60
2021/05/01 09:37:13;;;;;;;3.55;0.82;;;24.10;35.00;;;;;;4876441;29;20056;-59
2021/05/01 09:39:55;;;;;;;0.98;0.57;;;24.10;35.10;;;;;;4845543;29;20045;-60
2021/05/01 09:42:23;;;;;;;1.55;1.00;;;24.10;34.60;;;;;;4876218;29;20508;-60
2021/05/01 09:45:06;;;;;;;2.45;0.50;;;24.20;34.90;;;;;;4876434;29;20052;-60
2021/05/01 09:47:34;;;;;;;1.83;0.80;;;24.10;34.40;;;;;;4876407;29;20175;-60
2021/05/01 09:50:26;;;;;;;2.40;0.80;;;24.20;33.20;;;;;;4876166;29;20053;-60
2021/05/01 09:53:01;;;;;;;7.50;4.50;;;24.10;33.90;;;;;;4869967;29;20128;-60
2021/05/01 09:56:01;;;;;;;3.88;2.28;;;24.10;34.30;;;;;;4856096;29;20070;-60
2021/05/01 09:58:29;;;;;;;2.92;1.27;;;24.10;34.60;;;;;;4806083;29;20057;-61
2021/05/01 10:01:15;;;;;;;1.70;1.00;;;24.20;34.30;;;;;;4821433;29;20534;-60
2021/05/01 10:03:41;;;;;;;2.97;1.20;;;24.20;33.70;;;;;;4821565;29;20068;-61
2021/05/01 10:06:11;;;;;;;31.17;27.85;;;24.30;34.20;;;;;;4876445;29;20492;-61
2021/05/01 10:08:38;;;;;;;4.60;3.72;;;24.30;34.60;;;;;;4876174;29;20056;-61
2021/05/01 10:11:12;;;;;;;2.05;1.33;;;24.40;33.90;;;;;;4875650;29;20852;-60
2021/05/01 10:13:55;;;;;;;4.38;1.33;;;24.40;32.80;;;;;;4876058;29;20106;-60
2021/05/01 10:16:23;;;;;;;5.13;1.35;;;24.40;36.80;;;;;;4876221;29;20048;-60
2021/05/01 10:19:06;;;;;;;3.30;1.20;;;24.50;37.70;;;;;;4876177;29;20148;-61
2021/05/01 10:21:33;;;;;;;6.22;1.30;;;24.40;38.50;;;;;;4876252;29;20048;-60
2021/05/01 10:23:59;;;;;;;3.97;1.10;;;24.20;37.90;;;;;;4876083;29;20566;-60
2021/05/01 10:26:26;;;;;;;4.20;1.38;;;23.90;39.70;;;;;;4876045;29;20077;-60
2021/05/01 10:28:58;;;;;;;5.32;1.38;;;23.60;40.00;;;;;;4876133;29;20045;-60
2021/05/01 10:31:25;;;;;;;4.25;1.35;;;23.50;39.00;;;;;;4876265;29;20579;-60
2021/05/01 10:33:52;;;;;;;2.75;1.50;;;23.30;39.10;;;;;;4894087;29;20126;-60
2021/05/01 10:36:32;;;;;;;6.28;1.80;;;23.10;39.80;;;;;;4953929;29;20444;-61
2021/05/01 10:39:01;;;;;;;;;;;22.60;40.00;;;;;;4954197;29;20054;-60
2021/05/01 10:41:31;;;;;;;6.05;1.70;;;22.90;39.40;;;;;;4953800;29;20411;-59
2021/05/01 10:44:00;;;;;;;4.80;2.38;;;23.00;39.50;;;;;;4941983;28;20406;-59
2021/05/01 10:46:39;;;;;;;2.67;1.52;;;23.00;39.40;;;;;;4934479;29;20126;-60
2021/05/01 10:49:12;;;;;;;6.60;2.22;;;23.00;39.20;;;;;;4934230;29;20070;-60
2021/05/01 10:51:41;;;;;;;3.78;1.60;;;23.00;39.10;;;;;;4934557;29;20065;-60
2021/05/01 10:54:17;;;;;;;7.47;2.88;;;23.10;38.90;;;;;;4937052;29;20517;-59
2021/05/01 10:56:46;;;;;;;4.57;1.67;;;23.10;39.90;;;;;;4936495;29;20119;-60
2021/05/01 10:59:14;;;;;;;4.05;1.08;;;23.00;37.90;;;;;;4920519;29;20054;-59
2021/05/01 11:01:48;;;;;;;2.47;0.98;;;22.90;38.40;;;;;;4937673;29;20040;-59
2021/05/01 11:04:19;;;;;;;3.50;1.58;;;23.10;38.70;;;;;;4937936;29;20421;-59
2021/05/01 11:06:56;;;;;;;3.28;1.50;;;23.20;38.30;;;;;;4937814;29;20055;-59
2021/05/01 11:09:39;;;;;;;4.63;1.00;;;23.40;38.00;;;;;;4937797;29;20054;-59
2021/05/01 11:12:09;;;;;;;4.65;1.00;;;23.50;37.50;;;;;;4937925;29;20124;-59
2021/05/01 11:14:46;;;;;;;2.47;0.80;;;23.80;37.30;;;;;;4937643;29;20503;-59
2021/05/01 11:17:23;;;;;;;3.85;1.00;;;23.90;36.70;;;;;;4937734;29;20483;-59
2021/05/01 11:19:57;;;;;;;2.25;0.77;;;24.00;36.60;;;;;;4937989;29;20054;-59
2021/05/01 11:22:26;;;;;;;2.25;1.10;;;24.20;36.50;;;;;;4920584;29;20051;-58
2021/05/01 11:24:53;;;;;;;3.83;1.30;;;24.30;35.40;;;;;;4937929;29;20107;-58
2021/05/01 11:27:20;;;;;;;2.53;0.85;;;24.40;35.30;;;;;;4937952;29;20370;-58
2021/05/01 11:29:46;;;;;;;2.72;1.05;;;24.50;35.10;;;;;;4937471;29;20339;-59
2021/05/01 11:32:12;;;;;;;3.67;0.90;;;24.60;34.90;;;;;;4937603;29;20074;-59
2021/05/01 11:34:39;;;;;;;3.28;0.80;;;24.70;34.80;;;;;;4920449;29;20044;-58
2021/05/01 11:37:07;;;;;;;2.08;0.85;;;24.70;34.80;;;;;;4937495;29;20043;-58
2021/05/01 11:39:41;;;;;;;2.08;0.70;;;24.80;34.40;;;;;;4937557;29;20040;-59
2021/05/01 11:42:07;;;;;;;3.13;0.73;;;24.90;33.90;;;;;;4937365;29;20055;-58
2021/05/01 11:44:34;;;;;;;4.20;1.17;;;24.90;33.70;;;;;;4937681;29;20352;-59
2021/05/01 11:47:09;;;;;;;2.45;0.80;;;25.00;33.70;;;;;;4937405;29;20024;-59
2021/05/01 11:49:36;;;;;;;3.80;0.80;;;25.10;33.50;;;;;;4937605;29;20394;-58
2021/05/01 11:52:05;;;;;;;1.70;0.77;;;25.10;33.30;;;;;;4937457;29;20036;-58
2021/05/01 11:54:49;;;;;;;3.35;0.98;;;25.20;33.10;;;;;;4937270;29;20035;-59
2021/05/01 11:57:15;;;;;;;2.92;1.30;;;25.20;33.70;;;;;;4937324;29;20035;-58
2021/05/01 11:59:43;;;;;;;2.83;1.00;;;25.30;33.20;;;;;;4936971;29;20086;-60
2021/05/01 12:02:11;;;;;;;4.95;0.90;;;25.30;33.30;;;;;;4937052;29;20494;-59
2021/05/01 12:04:56;;;;;;;2.55;1.23;;;25.40;33.50;;;;;;4936735;29;20415;-59
2021/05/01 12:07:33;;;;;;;3.85;1.20;;;25.40;33.20;;;;;;4937075;29;20043;-59
2021/05/01 12:10:08;;;;;;;3.42;0.98;;;25.40;32.90;;;;;;4936990;29;20046;-59
2021/05/01 12:12:39;;;;;;;3.05;1.00;;;25.50;33.10;;;;;;4937343;29;20111;-59
2021/05/01 12:15:10;;;;;;;3.90;1.13;;;25.50;33.40;;;;;;4936685;29;20048;-59
2021/05/01 12:17:38;;;;;;;3.35;1.02;;;25.50;33.60;;;;;;4936781;29;20032;-58
2021/05/01 12:20:10;;;;;;;9.15;1.60;;;25.50;33.70;;;;;;4936617;29;20042;-59
2021/05/01 12:22:36;;;;;;;4.88;1.13;;;25.60;33.70;;;;;;4919607;29;20047;-59
2021/05/01 12:25:34;;;;;;;7.47;1.52;;;25.60;33.80;;;;;;4936668;29;20494;-59
2021/05/01 12:28:01;;;;;;;8.30;1.70;;;25.60;34.10;;;;;;4936565;29;20035;-58
2021/05/01 12:30:36;;;;;;;4.00;1.42;;;25.70;34.20;;;;;;4936129;28;20032;-59
2021/05/01 12:33:21;;;;;;;4.10;1.17;;;25.70;34.00;;;;;;4934420;29;20150;-58
2021/05/01 12:35:59;;;;;;;4.28;1.33;;;25.70;34.20;;;;;;4934670;29;20064;-59
2021/05/01 12:38:30;;;;;;;8.98;1.45;;;25.70;34.20;;;;;;4934512;29;20039;-59
2021/05/01 12:41:08;;;;;;;4.72;1.75;;;25.70;34.20;;;;;;4934470;29;20063;-59
2021/05/01 12:43:34;;;;;;;6.30;1.10;;;25.70;34.30;;;;;;4934378;29;20048;-59
2021/05/01 12:46:01;;;;;;;1.98;1.20;;;25.80;34.50;;;;;;4934103;29;20458;-59
2021/05/01 12:48:56;;;;;;;6.50;1.38;;;25.80;34.50;;;;;;4934286;29;20082;-59
2021/05/01 12:51:27;;;;;;;13.07;1.67;;;25.80;34.50;;;;;;4934267;29;20505;-59
2021/05/01 12:53:55;;;;;;;12.40;2.00;;;25.80;34.60;;;;;;4934369;29;20035;-60
2021/05/01 12:56:31;;;;;;;10.55;2.35;;;25.90;34.80;;;;;;4934350;29;20036;-59